createdAt,value
2018-07-12T00:02:15.455Z,5.15
2018-07-12T00:04:43.314Z,6.00
2018-07-12T00:07:11.130Z,5.40
2018-07-12T00:09:38.934Z,6.45
2018-07-12T00:12:06.790Z,4.90
2018-07-12T00:14:34.569Z,5.60
2018-07-12T00:17:02.414Z,5.58
2018-07-12T00:19:30.343Z,6.15
2018-07-12T00:21:58.214Z,7.00
2018-07-12T00:24:26.209Z,9.93
2018-07-12T00:26:54.050Z,9.15
2018-07-12T00:29:21.850Z,8.55
2018-07-12T00:31:49.666Z,7.78
2018-07-12T00:34:17.523Z,8.63
2018-07-12T00:36:45.338Z,10.03
2018-07-12T00:39:13.191Z,9.43
2018-07-12T00:41:41.014Z,11.05
2018-07-12T00:44:08.820Z,11.83
2018-07-12T00:46:36.622Z,10.10
2018-07-12T00:49:04.466Z,11.18
2018-07-12T00:51:32.306Z,12.75
2018-07-12T00:54:00.106Z,9.75
2018-07-12T00:56:27.887Z,9.95
2018-07-12T00:58:55.714Z,10.35
2018-07-12T01:01:23.494Z,9.00
2018-07-12T01:03:51.310Z,13.70
2018-07-12T01:06:19.121Z,10.50
2018-07-12T01:08:46.904Z,9.50
2018-07-12T01:11:14.730Z,8.75
2018-07-12T01:13:42.720Z,8.38
2018-07-12T01:16:10.557Z,8.03
2018-07-12T01:18:38.358Z,7.67
2018-07-12T01:21:06.150Z,7.97
2018-07-12T01:23:33.955Z,9.35
2018-07-12T01:26:01.734Z,7.67
2018-07-12T01:28:29.522Z,8.10
2018-07-12T01:30:57.331Z,8.45
2018-07-12T01:33:25.106Z,8.13
2018-07-12T01:35:52.926Z,7.62
2018-07-12T01:38:20.894Z,10.30
2018-07-12T01:40:48.702Z,7.30
2018-07-12T01:43:16.514Z,5.78
2018-07-12T01:45:44.366Z,7.47
2018-07-12T01:48:12.392Z,6.90
2018-07-12T01:50:40.221Z,7.35
2018-07-12T01:53:08.012Z,6.87
2018-07-12T01:55:35.810Z,7.58
2018-07-12T01:58:03.594Z,7.33
2018-07-12T02:00:31.447Z,7.40
2018-07-12T02:02:59.216Z,6.47
2018-07-12T02:05:27.016Z,6.70
2018-07-12T02:07:54.810Z,7.05
2018-07-12T02:10:22.600Z,8.08
2018-07-12T02:12:50.599Z,9.55
2018-07-12T02:15:18.426Z,8.10
2018-07-12T02:17:46.383Z,7.92
2018-07-12T02:20:14.211Z,6.80
2018-07-12T02:22:42.966Z,6.95
2018-07-12T02:25:10.782Z,6.33
2018-07-12T02:27:38.608Z,8.05
2018-07-12T02:30:06.396Z,6.78
2018-07-12T02:32:34.194Z,7.00
2018-07-12T02:35:02.024Z,6.70
2018-07-12T02:37:29.800Z,7.08
2018-07-12T02:39:57.587Z,7.22
2018-07-12T02:42:25.391Z,7.22
2018-07-12T02:44:53.191Z,9.80
2018-07-12T02:47:21.202Z,8.40
2018-07-12T02:49:49.043Z,10.45
2018-07-12T02:52:16.851Z,6.83
2018-07-12T02:54:44.653Z,9.03
2018-07-12T02:57:12.465Z,13.25
2018-07-12T02:59:40.282Z,7.00
2018-07-12T03:02:08.054Z,9.00
2018-07-12T03:04:35.871Z,10.95
2018-07-12T03:07:03.731Z,9.63
2018-07-12T03:09:31.571Z,9.53
2018-07-12T03:11:59.410Z,12.35
2018-07-12T03:14:27.242Z,13.38
2018-07-12T03:16:55.027Z,9.73
2018-07-12T03:19:22.830Z,10.70
2018-07-12T03:21:50.635Z,10.55
2018-07-12T03:24:18.425Z,9.33
2018-07-12T03:26:46.234Z,9.70
2018-07-12T03:29:14.031Z,10.08
2018-07-12T03:31:41.862Z,8.33
2018-07-12T03:34:09.667Z,8.83
2018-07-12T03:36:37.497Z,11.05
2018-07-12T03:39:05.530Z,9.33
2018-07-12T03:41:33.326Z,8.00
2018-07-12T03:44:01.126Z,8.20
2018-07-12T03:46:28.927Z,9.20
2018-07-12T03:48:56.776Z,10.75
2018-07-12T03:51:24.573Z,8.63
2018-07-12T03:53:52.402Z,9.28
2018-07-12T03:56:20.238Z,8.50
2018-07-12T03:58:48.126Z,9.48
2018-07-12T04:01:15.987Z,11.00
2018-07-12T04:03:43.852Z,11.55
2018-07-12T04:06:11.709Z,10.23
2018-07-12T04:08:39.483Z,11.18
2018-07-12T04:11:07.310Z,14.70
2018-07-12T04:13:35.090Z,12.88
2018-07-12T04:16:02.895Z,12.20
2018-07-12T04:18:30.687Z,12.80
2018-07-12T04:20:58.492Z,12.05
2018-07-12T04:23:26.433Z,12.10
2018-07-12T04:25:54.234Z,14.25
2018-07-12T04:28:22.027Z,13.75
2018-07-12T04:30:49.818Z,16.40
2018-07-12T04:33:17.853Z,11.30
2018-07-12T04:35:45.699Z,12.58
2018-07-12T04:38:13.770Z,14.87
2018-07-12T04:40:41.761Z,14.20
2018-07-12T04:43:09.488Z,13.08
2018-07-12T04:45:37.319Z,12.78
2018-07-12T04:48:05.134Z,13.68
2018-07-12T04:50:32.943Z,14.70
2018-07-12T04:53:00.714Z,12.95
2018-07-12T04:55:28.518Z,11.85
2018-07-12T04:57:56.306Z,12.93
2018-07-12T05:00:24.127Z,12.45
2018-07-12T05:02:51.929Z,13.88
2018-07-12T05:05:19.734Z,10.72
2018-07-12T05:07:47.555Z,13.75
2018-07-12T05:10:15.419Z,13.75
2018-07-12T05:12:43.227Z,13.03
2018-07-12T05:15:11.034Z,14.00
2018-07-12T05:17:38.854Z,14.80
2018-07-12T05:20:06.648Z,13.20
2018-07-12T05:22:34.458Z,13.83
2018-07-12T05:25:02.443Z,13.45
2018-07-12T05:27:30.354Z,15.38
2018-07-12T05:29:58.157Z,12.70
2018-07-12T05:32:25.958Z,11.28
2018-07-12T05:34:53.764Z,16.45
2018-07-12T05:37:23.810Z,19.12
2018-07-12T05:39:52.748Z,13.65
2018-07-12T05:42:21.622Z,16.17
2018-07-12T05:44:50.530Z,15.65
2018-07-12T05:47:20.527Z,14.20
2018-07-12T05:49:49.742Z,13.08
2018-07-12T05:52:18.651Z,14.53
2018-07-12T05:54:47.670Z,13.90
2018-07-12T05:57:16.741Z,16.00
2018-07-12T05:59:45.722Z,13.93
2018-07-12T06:02:17.018Z,13.45
2018-07-12T06:04:46.364Z,12.60
2018-07-12T06:07:19.505Z,15.90
2018-07-12T06:09:48.510Z,17.42
2018-07-12T06:12:17.744Z,15.28
2018-07-12T06:14:46.890Z,12.95
2018-07-12T06:17:15.875Z,15.45
2018-07-12T06:19:44.813Z,15.90
2018-07-12T06:22:13.837Z,12.82
2018-07-12T06:24:42.675Z,14.87
2018-07-12T06:27:11.734Z,14.30
2018-07-12T06:29:40.701Z,13.83
2018-07-12T06:32:09.602Z,14.30
2018-07-12T06:34:38.498Z,12.55
2018-07-12T06:37:07.520Z,14.33
2018-07-12T06:39:36.375Z,16.40
2018-07-12T06:42:05.591Z,13.75
2018-07-12T06:44:34.506Z,15.00
2018-07-12T06:47:03.434Z,11.60
2018-07-12T06:49:32.510Z,12.95
2018-07-12T06:52:01.457Z,13.05
2018-07-12T06:54:30.419Z,13.32
2018-07-12T06:56:59.288Z,12.82
2018-07-12T06:59:28.194Z,10.82
2018-07-12T07:01:57.162Z,11.63
2018-07-12T07:04:26.263Z,17.70
2018-07-12T07:06:55.226Z,11.90
2018-07-12T07:09:24.117Z,11.12
2018-07-12T07:11:53.072Z,12.93
2018-07-12T07:14:22.154Z,11.75
2018-07-12T07:16:51.050Z,10.40
2018-07-12T07:19:20.116Z,14.55
2018-07-12T07:21:49.046Z,11.03
2018-07-12T07:24:18.061Z,10.68
2018-07-12T07:26:47.039Z,12.28
2018-07-12T07:29:15.999Z,11.90
2018-07-12T07:31:44.947Z,11.33
2018-07-12T07:34:13.842Z,13.25
2018-07-12T07:36:42.726Z,9.48
2018-07-12T07:39:11.721Z,12.05
2018-07-12T07:41:40.587Z,9.33
2018-07-12T07:44:09.482Z,10.23
2018-07-12T07:46:38.381Z,8.53
2018-07-12T07:49:07.346Z,8.68
2018-07-12T07:51:36.376Z,9.88
2018-07-12T07:54:05.469Z,9.40
2018-07-12T07:56:34.566Z,8.80
2018-07-12T07:59:03.715Z,8.15
2018-07-12T08:01:32.893Z,8.10
2018-07-12T08:04:01.772Z,8.63
2018-07-12T08:06:30.667Z,8.98
2018-07-12T08:08:59.582Z,8.20
2018-07-12T08:11:28.475Z,9.50
2018-07-12T08:13:57.354Z,8.18
2018-07-12T08:16:26.322Z,8.70
2018-07-12T08:18:55.251Z,7.78
2018-07-12T08:21:24.146Z,9.80
2018-07-12T08:23:53.082Z,8.03
2018-07-12T08:26:21.958Z,8.15
2018-07-12T08:28:50.958Z,6.95
2018-07-12T08:31:19.913Z,8.25
2018-07-12T08:33:48.733Z,8.43
2018-07-12T08:36:17.710Z,8.28
2018-07-12T08:38:46.661Z,6.83
2018-07-12T08:41:15.590Z,7.22
2018-07-12T08:43:44.578Z,9.35
2018-07-12T08:46:13.561Z,7.55
2018-07-12T08:48:42.381Z,9.05
2018-07-12T08:51:11.283Z,7.78
2018-07-12T08:53:40.257Z,6.47
2018-07-12T08:56:09.163Z,8.10
2018-07-12T08:58:38.065Z,6.97
2018-07-12T09:01:06.963Z,6.62
2018-07-12T09:03:35.957Z,10.08
2018-07-12T09:06:04.960Z,8.18
2018-07-12T09:08:33.846Z,8.15
2018-07-12T09:11:02.825Z,9.78
2018-07-12T09:13:32.794Z,7.03
2018-07-12T09:16:01.767Z,7.03
2018-07-12T09:18:30.648Z,6.78
2018-07-12T09:20:59.558Z,7.30
2018-07-12T09:23:28.483Z,8.33
2018-07-12T09:25:57.465Z,6.55
2018-07-12T09:28:26.383Z,5.42
2018-07-12T09:30:55.485Z,5.47
2018-07-12T09:33:24.293Z,6.15
2018-07-12T09:35:53.254Z,5.80
2018-07-12T09:38:33.458Z,5.70
2018-07-12T09:41:02.384Z,7.83
2018-07-12T09:43:31.583Z,9.43
2018-07-12T09:46:00.479Z,6.75
2018-07-12T09:48:29.411Z,6.70
2018-07-12T09:50:58.348Z,6.12
2018-07-12T09:53:27.345Z,5.67
2018-07-12T09:55:56.285Z,5.25
2018-07-12T09:58:28.594Z,5.10
2018-07-12T10:01:03.074Z,7.67
2018-07-12T10:03:37.307Z,5.30
2018-07-12T10:06:11.794Z,4.78
2018-07-12T10:08:46.249Z,4.55
2018-07-12T10:11:20.643Z,5.40
2018-07-12T10:13:55.011Z,4.62
2018-07-12T10:16:29.232Z,5.00
2018-07-12T10:18:58.151Z,4.37
2018-07-12T10:21:26.815Z,5.40
2018-07-12T10:23:55.612Z,4.10
2018-07-12T10:26:24.630Z,3.80
2018-07-12T10:28:53.818Z,4.22
2018-07-12T10:31:22.727Z,3.98
2018-07-12T10:33:51.711Z,4.65
2018-07-12T10:36:21.142Z,3.90
2018-07-12T10:38:50.034Z,4.60
2018-07-12T10:41:19.142Z,4.78
2018-07-12T10:43:48.014Z,4.30
2018-07-12T10:46:16.921Z,4.20
2018-07-12T10:48:45.830Z,4.20
2018-07-12T10:51:14.746Z,4.40
2018-07-12T10:53:43.651Z,4.28
2018-07-12T10:56:12.550Z,3.73
2018-07-12T10:58:41.438Z,4.25
2018-07-12T11:01:10.332Z,3.33
2018-07-12T11:03:39.214Z,3.63
2018-07-12T11:06:08.094Z,3.53
2018-07-12T11:08:36.965Z,2.90
2018-07-12T11:11:05.862Z,3.20
2018-07-12T11:13:47.130Z,2.93
2018-07-12T11:16:16.076Z,3.00
2018-07-12T11:18:44.962Z,3.77
2018-07-12T11:21:14.277Z,3.47
2018-07-12T11:23:43.193Z,2.63
2018-07-12T11:26:12.740Z,3.47
2018-07-12T11:28:45.126Z,2.70
2018-07-12T11:31:14.127Z,2.27
2018-07-12T11:33:45.030Z,2.50
2018-07-12T11:36:13.972Z,2.87
2018-07-12T11:38:43.848Z,4.63
2018-07-12T11:41:13.046Z,2.93
2018-07-12T11:43:42.015Z,2.60
2018-07-12T11:46:12.190Z,3.23
2018-07-12T11:48:42.114Z,2.80
2018-07-12T11:51:10.990Z,2.50
2018-07-12T11:53:39.888Z,2.30
2018-07-12T11:56:08.766Z,2.30
2018-07-12T11:58:37.665Z,2.47
2018-07-12T12:01:06.564Z,2.30
2018-07-12T12:03:35.510Z,2.97
2018-07-12T12:06:04.378Z,3.23
2018-07-12T12:08:33.266Z,3.23
2018-07-12T12:11:02.176Z,3.70
2018-07-12T12:13:31.087Z,3.10
2018-07-12T12:15:59.977Z,2.73
2018-07-12T12:18:29.022Z,2.87
2018-07-12T12:20:57.919Z,3.00
2018-07-12T12:23:26.793Z,3.30
2018-07-12T12:25:55.734Z,2.60
2018-07-12T12:28:25.637Z,3.07
2018-07-12T12:30:54.515Z,3.20
2018-07-12T12:33:23.442Z,2.60
2018-07-12T12:35:52.290Z,1.90
2018-07-12T12:38:21.274Z,2.57
2018-07-12T12:40:50.174Z,1.57
2018-07-12T12:43:19.115Z,2.23
2018-07-12T12:45:48.030Z,2.43
2018-07-12T12:48:16.999Z,2.17
2018-07-12T12:50:46.038Z,2.27
2018-07-12T12:53:14.934Z,3.37
2018-07-12T12:55:43.947Z,1.93
2018-07-12T12:58:12.910Z,2.40
2018-07-12T13:00:41.795Z,2.40
2018-07-12T13:03:10.670Z,2.07
2018-07-12T13:05:39.549Z,2.30
2018-07-12T13:08:08.522Z,1.77
2018-07-12T13:10:37.339Z,3.23
2018-07-12T13:13:06.254Z,2.50
2018-07-12T13:15:35.156Z,2.33
2018-07-12T13:18:04.229Z,2.67
2018-07-12T13:20:32.814Z,2.07
2018-07-12T13:23:01.614Z,2.33
2018-07-12T13:25:30.508Z,2.60
2018-07-12T13:27:59.433Z,2.33
2018-07-12T13:30:28.327Z,1.97
2018-07-12T13:32:57.350Z,3.53
2018-07-12T13:35:26.230Z,2.07
2018-07-12T13:37:55.571Z,2.20
2018-07-12T13:40:24.453Z,2.00
2018-07-12T13:42:53.322Z,2.20
2018-07-12T13:45:22.313Z,2.77
2018-07-12T13:47:51.216Z,2.60
2018-07-12T13:50:20.279Z,2.47
2018-07-12T13:52:49.178Z,2.10
2018-07-12T13:55:18.071Z,1.87
2018-07-12T13:57:47.018Z,1.80
2018-07-12T14:00:15.938Z,2.17
2018-07-12T14:02:44.815Z,1.97
2018-07-12T14:05:13.721Z,1.90
2018-07-12T14:07:42.594Z,9.83
2018-07-12T14:10:11.567Z,2.37
2018-07-12T14:12:40.535Z,1.93
2018-07-12T14:15:09.450Z,2.60
2018-07-12T14:17:38.315Z,2.20
2018-07-12T14:20:07.216Z,2.40
2018-07-12T14:22:36.114Z,2.00
2018-07-12T14:25:05.002Z,2.30
2018-07-12T14:27:33.911Z,2.17
2018-07-12T14:30:02.786Z,2.20
2018-07-12T14:32:31.659Z,2.10
2018-07-12T14:35:00.698Z,3.03
2018-07-12T14:37:29.570Z,1.83
2018-07-12T14:39:58.470Z,2.17
2018-07-12T14:42:27.404Z,2.30
2018-07-12T14:44:56.319Z,2.30
2018-07-12T14:47:25.195Z,2.63
2018-07-12T14:49:54.070Z,3.67
2018-07-12T14:52:22.662Z,2.27
2018-07-12T14:54:51.454Z,2.20
2018-07-12T14:57:20.367Z,1.90
2018-07-12T14:59:49.254Z,1.80
2018-07-12T15:02:18.178Z,2.03
2018-07-12T15:04:47.126Z,2.50
2018-07-12T15:07:16.046Z,2.77
2018-07-12T15:09:45.060Z,2.00
2018-07-12T15:12:13.965Z,2.30
2018-07-12T15:14:42.922Z,1.80
2018-07-12T15:17:11.959Z,2.03
2018-07-12T15:19:40.814Z,2.50
2018-07-12T15:22:09.731Z,2.10
2018-07-12T15:24:38.689Z,2.37
2018-07-12T15:27:07.527Z,2.23
2018-07-12T15:29:36.525Z,2.40
2018-07-12T15:32:05.485Z,2.23
2018-07-12T15:34:34.346Z,2.27
2018-07-12T15:37:03.026Z,2.27
2018-07-12T15:39:31.749Z,2.53
2018-07-12T15:42:00.626Z,2.23
2018-07-12T15:44:29.487Z,2.30
2018-07-12T15:46:58.370Z,1.60
2018-07-12T15:49:27.249Z,2.10
2018-07-12T15:51:56.210Z,1.80
2018-07-12T15:54:25.106Z,2.70
2018-07-12T15:56:54.110Z,1.87
2018-07-12T15:59:23.225Z,1.97
2018-07-12T16:01:52.115Z,1.80
2018-07-12T16:04:21.007Z,2.47
2018-07-12T16:06:49.945Z,1.77
2018-07-12T16:09:18.864Z,1.70
2018-07-12T16:11:47.758Z,1.90
2018-07-12T16:14:16.686Z,2.00
2018-07-12T16:16:45.630Z,1.67
2018-07-12T16:19:14.525Z,2.37
2018-07-12T16:21:43.398Z,1.90
2018-07-12T16:24:12.278Z,1.80
2018-07-12T16:26:41.158Z,1.80
2018-07-12T16:29:10.038Z,1.90
2018-07-12T16:31:38.919Z,1.70
2018-07-12T16:34:07.912Z,1.80
2018-07-12T16:36:36.771Z,1.73
2018-07-12T16:39:07.167Z,1.93
2018-07-12T16:41:36.099Z,2.07
2018-07-12T16:44:05.030Z,2.97
2018-07-12T16:46:33.902Z,1.70
2018-07-12T16:49:02.794Z,1.90
2018-07-12T16:51:31.377Z,2.70
2018-07-12T16:54:00.271Z,1.93
2018-07-12T16:56:29.151Z,1.63
2018-07-12T16:58:58.040Z,2.37
2018-07-12T17:01:26.913Z,1.93
2018-07-12T17:03:55.818Z,2.20
2018-07-12T17:06:24.706Z,1.77
2018-07-12T17:08:53.599Z,1.73
2018-07-12T17:11:22.523Z,1.70
2018-07-12T17:13:51.658Z,1.60
2018-07-12T17:16:20.566Z,1.83
2018-07-12T17:18:49.551Z,2.90
2018-07-12T17:21:18.431Z,1.80
2018-07-12T17:23:47.406Z,1.83
2018-07-12T17:26:16.225Z,2.17
2018-07-12T17:28:45.114Z,2.10
2018-07-12T17:31:14.019Z,2.13
2018-07-12T17:33:42.931Z,2.20
2018-07-12T17:36:11.800Z,1.80
2018-07-12T17:38:40.729Z,2.00
2018-07-12T17:41:09.650Z,1.67
2018-07-12T17:43:38.469Z,1.80
2018-07-12T17:46:07.369Z,2.13
2018-07-12T17:48:35.984Z,1.83
2018-07-12T17:51:04.786Z,2.47
2018-07-12T17:53:33.674Z,2.60
2018-07-12T17:56:02.590Z,3.03
2018-07-12T17:58:31.446Z,3.73
2018-07-12T18:01:00.355Z,2.23
2018-07-12T18:03:29.263Z,2.20
2018-07-12T18:05:58.159Z,1.90
2018-07-12T18:08:27.062Z,2.00
2018-07-12T18:10:55.964Z,2.37
2018-07-12T18:13:24.901Z,2.07
2018-07-12T18:15:53.828Z,4.27
2018-07-12T18:18:22.719Z,2.20
2018-07-12T18:20:51.591Z,2.17
2018-07-12T18:23:20.477Z,2.80
2018-07-12T18:25:49.437Z,2.50
2018-07-12T18:28:18.352Z,2.13
2018-07-12T18:30:47.246Z,2.77
2018-07-12T18:33:16.147Z,2.50
2018-07-12T18:35:45.140Z,2.10
2018-07-12T18:38:14.034Z,2.80
2018-07-12T18:40:42.926Z,2.40
2018-07-12T18:43:11.799Z,2.13
2018-07-12T18:45:40.702Z,3.03
2018-07-12T18:48:09.568Z,2.50
2018-07-12T18:50:38.438Z,3.20
2018-07-12T18:53:07.326Z,2.60
2018-07-12T18:55:36.212Z,2.53
2018-07-12T18:58:05.105Z,4.03
2018-07-12T19:00:34.035Z,2.50
2018-07-12T19:03:02.928Z,2.77
2018-07-12T19:05:31.827Z,3.20
2018-07-12T19:08:00.732Z,2.77
2018-07-12T19:10:29.647Z,2.60
2018-07-12T19:12:58.539Z,2.47
2018-07-12T19:15:27.442Z,2.33
2018-07-12T19:17:56.307Z,2.10
2018-07-12T19:20:25.258Z,2.43
2018-07-12T19:22:54.163Z,4.60
2018-07-12T19:25:23.059Z,2.30
2018-07-12T19:27:51.950Z,3.55
2018-07-12T19:30:20.846Z,2.53
2018-07-12T19:32:49.762Z,2.70
2018-07-12T19:35:18.630Z,2.60
2018-07-12T19:37:47.242Z,2.33
2018-07-12T19:40:16.134Z,3.10
2018-07-12T19:42:45.012Z,2.58
2018-07-12T19:45:13.928Z,2.80
2018-07-12T19:47:42.818Z,2.37
2018-07-12T19:50:11.803Z,2.67
2018-07-12T19:52:40.703Z,2.60
2018-07-12T19:55:09.654Z,3.67
2018-07-12T19:57:38.591Z,3.00
2018-07-12T20:00:07.466Z,2.72
2018-07-12T20:02:36.438Z,2.30
2018-07-12T20:05:05.371Z,2.60
2018-07-12T20:07:34.277Z,3.45
2018-07-12T20:10:03.198Z,2.80
2018-07-12T20:12:32.086Z,2.70
2018-07-12T20:15:01.006Z,2.70
2018-07-12T20:17:29.898Z,3.00
2018-07-12T20:19:58.798Z,2.40
2018-07-12T20:22:27.686Z,4.25
2018-07-12T20:24:56.698Z,2.65
2018-07-12T20:27:25.638Z,2.60
2018-07-12T20:29:54.847Z,2.70
2018-07-12T20:32:23.862Z,3.13
2018-07-12T20:34:52.811Z,2.45
2018-07-12T20:37:21.686Z,2.73
2018-07-12T20:39:50.688Z,2.65
2018-07-12T20:42:19.611Z,2.70
2018-07-12T20:44:48.538Z,2.37
2018-07-12T20:47:18.515Z,3.47
2018-07-12T20:49:47.426Z,2.90
2018-07-12T20:52:16.335Z,2.72
2018-07-12T20:54:45.295Z,2.40
2018-07-12T20:57:14.210Z,2.80
2018-07-12T20:59:43.103Z,2.65
2018-07-12T21:02:11.693Z,3.22
2018-07-12T21:04:40.479Z,2.77
2018-07-12T21:07:09.493Z,3.10
2018-07-12T21:09:38.459Z,3.30
2018-07-12T21:12:07.356Z,3.40
2018-07-12T21:14:36.250Z,5.90
2018-07-12T21:17:05.186Z,3.70
2018-07-12T21:19:34.066Z,3.20
2018-07-12T21:22:02.970Z,2.90
2018-07-12T21:24:31.845Z,3.50
2018-07-12T21:27:00.487Z,3.60
2018-07-12T21:29:29.270Z,3.50
2018-07-12T21:31:58.217Z,2.62
2018-07-12T21:34:27.221Z,4.92
2018-07-12T21:36:56.093Z,3.30
2018-07-12T21:39:25.140Z,3.05
2018-07-12T21:41:54.030Z,3.17
2018-07-12T21:44:23.032Z,4.75
2018-07-12T21:46:51.902Z,3.10
2018-07-12T21:49:20.774Z,3.42
2018-07-12T21:51:49.783Z,3.47
2018-07-12T21:54:18.808Z,2.98
2018-07-12T21:56:47.702Z,3.25
2018-07-12T21:59:16.565Z,3.30
2018-07-12T22:01:45.451Z,3.58
2018-07-12T22:04:14.343Z,3.52
2018-07-12T22:07:01.111Z,3.70
2018-07-12T22:09:29.994Z,3.42
2018-07-12T22:11:59.003Z,4.05
2018-07-12T22:14:27.778Z,3.27
2018-07-12T22:16:56.669Z,3.22
2018-07-12T22:19:25.525Z,3.70
2018-07-12T22:21:54.446Z,3.50
2018-07-12T22:24:23.399Z,3.60
2018-07-12T22:26:53.166Z,4.10
2018-07-12T22:29:22.078Z,3.70
2018-07-12T22:31:50.967Z,3.95
2018-07-12T22:34:19.838Z,3.52
2018-07-12T22:36:48.727Z,3.72
2018-07-12T22:39:17.715Z,3.55
2018-07-12T22:41:46.831Z,3.80
2018-07-12T22:44:15.655Z,3.87
2018-07-12T22:46:44.547Z,3.42
2018-07-12T22:49:13.465Z,3.83
2018-07-12T22:51:42.352Z,3.95
2018-07-12T22:54:10.901Z,4.92
2018-07-12T22:56:39.690Z,3.92
2018-07-12T22:59:08.614Z,3.62
2018-07-12T23:01:37.511Z,3.95
2018-07-12T23:04:06.083Z,3.83
2018-07-12T23:06:34.924Z,3.98
2018-07-12T23:09:04.959Z,4.05
2018-07-12T23:11:33.545Z,3.58
2018-07-12T23:14:02.510Z,4.10
2018-07-12T23:16:31.415Z,4.25
2018-07-12T23:19:00.437Z,5.78
2018-07-12T23:21:29.350Z,3.80
2018-07-12T23:23:58.210Z,4.72
2018-07-12T23:26:27.090Z,4.05
2018-07-12T23:28:55.962Z,4.47
2018-07-12T23:31:24.850Z,4.00
2018-07-12T23:33:53.746Z,4.50
2018-07-12T23:36:22.635Z,3.37
2018-07-12T23:38:51.495Z,4.25
2018-07-12T23:41:20.374Z,3.90
2018-07-12T23:43:49.601Z,4.12
2018-07-12T23:46:18.481Z,4.17
2018-07-12T23:48:47.370Z,4.30
2018-07-12T23:51:16.254Z,4.80
2018-07-12T23:53:45.159Z,4.00
2018-07-12T23:56:14.054Z,5.22
2018-07-12T23:58:42.942Z,4.53
